Time;durP1;ratioP1;P1;durP2;ratioP2;P2;SDS_P1;SDS_P2;PMS_P1;PMS_P2;Temp;Humidity;BMP_temperature;BMP_pressure;BME280_temperature;BME280_humidity;BME280_pressure;Samples;Min_cycle;Max_cycle;Signal;HPM_P1;HPM_P2
2022/11/28 00:01:49;;;;;;;0.00;0.00;;;7.30;99.90;;;;;;5017460;28;20060;-64
2022/11/28 00:04:15;;;;;;;0.00;0.00;;;7.20;99.90;;;;;;5012778;28;20040;-65
2022/11/28 00:06:45;;;;;;;0.00;0.00;;;7.20;99.90;;;;;;5008540;28;20420;-66
2022/11/28 00:09:12;;;;;;;0.00;0.00;;;7.10;99.90;;;;;;5009739;28;20587;-64
2022/11/28 00:11:39;;;;;;;0.00;0.00;;;7.00;99.90;;;;;;5008511;28;20391;-65
2022/11/28 00:14:05;;;;;;;0.00;0.00;;;7.00;99.90;;;;;;5008152;28;20092;-65
2022/11/28 00:16:30;;;;;;;;;;;6.90;99.90;;;;;;5014466;28;20030;-65
2022/11/28 00:18:58;;;;;;;0.00;0.00;;;6.80;99.90;;;;;;5010260;28;20267;-65
2022/11/28 00:21:24;;;;;;;0.00;0.00;;;6.90;99.90;;;;;;5009252;28;20101;-65
2022/11/28 00:23:50;;;;;;;0.00;0.00;;;6.80;99.90;;;;;;5008972;28;20026;-65
2022/11/28 00:26:16;;;;;;;0.00;0.00;;;6.70;99.90;;;;;;5007849;28;20486;-65
2022/11/28 00:28:42;;;;;;;0.00;0.00;;;6.60;99.90;;;;;;5007859;28;20418;-65
2022/11/28 00:31:16;;;;;;;0.00;0.00;;;6.60;99.90;;;;;;5009355;28;20034;-64
2022/11/28 00:33:43;;;;;;;0.00;0.00;;;6.50;99.90;;;;;;5008886;28;20109;-65
2022/11/28 00:36:09;;;;;;;0.00;0.00;;;6.30;99.90;;;;;;5008697;28;20033;-65
2022/11/28 00:38:35;;;;;;;0.00;0.00;;;6.30;99.90;;;;;;5008604;28;20133;-65
2022/11/28 00:41:02;;;;;;;0.00;0.00;;;6.20;99.90;;;;;;5007804;28;20033;-65
2022/11/28 00:43:28;;;;;;;0.00;0.00;;;6.10;99.90;;;;;;5007138;28;20057;-64
2022/11/28 00:45:54;;;;;;;0.00;0.00;;;6.10;99.90;;;;;;5005129;28;20060;-64
2022/11/28 00:48:20;;;;;;;0.00;0.00;;;6.10;99.90;;;;;;5008855;28;20447;-65
2022/11/28 00:50:46;;;;;;;0.00;0.00;;;6.20;99.90;;;;;;5008298;28;20034;-64
2022/11/28 00:53:11;;;;;;;;;;;6.20;99.90;;;;;;5008869;28;20113;-64
2022/11/28 00:55:38;;;;;;;0.00;0.00;;;6.00;99.90;;;;;;5009351;28;20003;-65
2022/11/28 00:58:04;;;;;;;0.00;0.00;;;5.90;99.90;;;;;;5006933;28;20029;-65
2022/11/28 01:00:30;;;;;;;0.00;0.00;;;5.90;99.90;;;;;;5009311;28;20550;-64
2022/11/28 01:02:55;;;;;;;0.00;0.00;;;5.70;99.90;;;;;;5009316;28;20033;-64
2022/11/28 01:05:21;;;;;;;0.00;0.00;;;5.70;99.90;;;;;;5009706;28;20063;-64
2022/11/28 01:07:47;;;;;;;0.00;0.00;;;5.70;99.90;;;;;;5010623;28;20057;-64
2022/11/28 01:10:12;;;;;;;0.00;0.00;;;5.70;99.90;;;;;;5008785;28;20030;-65
2022/11/28 01:12:38;;;;;;;0.00;0.00;;;5.70;99.90;;;;;;5010433;28;20034;-64
2022/11/28 01:15:07;;;;;;;0.00;0.00;;;5.80;99.90;;;;;;5001338;28;20546;-66
2022/11/28 01:17:33;;;;;;;0.00;0.00;;;5.70;99.90;;;;;;5010181;28;20034;-65
2022/11/28 01:19:59;;;;;;;0.00;0.00;;;5.70;99.90;;;;;;5025881;28;20022;-64
2022/11/28 01:22:24;;;;;;;0.00;0.00;;;5.70;99.90;;;;;;5008622;28;20034;-64
2022/11/28 01:24:50;;;;;;;0.00;0.00;;;5.60;99.90;;;;;;5012266;28;20034;-65
2022/11/28 01:27:16;;;;;;;0.00;0.00;;;5.60;99.90;;;;;;5009654;28;20042;-65
2022/11/28 01:29:41;;;;;;;0.00;0.00;;;5.50;99.90;;;;;;5009568;28;20026;-64
2022/11/28 01:32:07;;;;;;;0.00;0.00;;;5.50;99.90;;;;;;5001838;28;20150;-63
2022/11/28 01:34:32;;;;;;;0.00;0.00;;;5.50;99.90;;;;;;5007447;28;20473;-64
2022/11/28 01:36:59;;;;;;;0.00;0.00;;;5.40;99.90;;;;;;5007923;28;20042;-65
2022/11/28 01:39:24;;;;;;;;;;;5.40;99.90;;;;;;5012991;28;20092;-64
2022/11/28 01:41:50;;;;;;;0.00;0.00;;;5.40;99.90;;;;;;5009596;28;19906;-65
2022/11/28 01:44:16;;;;;;;0.00;0.00;;;5.40;99.90;;;;;;5009567;28;20030;-65
2022/11/28 01:46:42;;;;;;;0.00;0.00;;;5.40;99.90;;;;;;5003843;28;20040;-65
2022/11/28 01:49:16;;;;;;;0.00;0.00;;;5.50;99.90;;;;;;5004467;28;20022;-64
2022/11/28 01:51:45;;;;;;;0.00;0.00;;;5.60;99.90;;;;;;5004727;28;20053;-64
2022/11/28 01:54:13;;;;;;;0.00;0.00;;;5.70;99.90;;;;;;5008110;28;20399;-65
2022/11/28 01:56:56;;;;;;;0.00;0.00;;;5.60;99.90;;;;;;5006435;28;20045;-64
2022/11/28 01:59:26;;;;;;;0.00;0.00;;;5.60;99.90;;;;;;5027656;28;20033;-64
2022/11/28 02:01:51;;;;;;;0.00;0.00;;;5.50;99.90;;;;;;5009670;28;20408;-64
2022/11/28 02:04:18;;;;;;;0.00;0.00;;;5.60;99.90;;;;;;5013096;28;20129;-65
2022/11/28 02:06:43;;;;;;;0.00;0.00;;;5.50;99.90;;;;;;5011985;28;20038;-65
2022/11/28 02:09:12;;;;;;;0.00;0.00;;;5.60;99.90;;;;;;5012673;28;20037;-65
2022/11/28 02:12:07;;;;;;;0.00;0.00;;;5.60;99.90;;;;;;5012267;28;20042;-65
2022/11/28 02:14:32;;;;;;;0.00;0.00;;;5.60;99.90;;;;;;5011290;28;20069;-65
2022/11/28 02:17:35;;;;;;;0.00;0.00;;;5.60;99.90;;;;;;5012218;28;20087;-65
2022/11/28 02:20:20;;;;;;;0.00;0.00;;;5.50;99.90;;;;;;5010720;28;20038;-65
2022/11/28 02:23:28;;;;;;;0.00;0.00;;;5.50;99.90;;;;;;5009795;28;20038;-64
2022/11/28 02:25:56;;;;;;;0.00;0.00;;;5.50;99.90;;;;;;5008019;28;20057;-65
2022/11/28 02:28:42;;;;;;;0.00;0.00;;;5.40;99.90;;;;;;5005901;28;21179;-64
2022/11/28 02:31:33;;;;;;;0.00;0.00;;;5.30;99.90;;;;;;5002674;28;20026;-64
2022/11/28 02:34:12;;;;;;;0.00;0.00;;;5.40;99.90;;;;;;5002208;28;20036;-65
2022/11/28 02:36:53;;;;;;;0.00;0.00;;;5.40;99.90;;;;;;5005294;28;20113;-64
2022/11/28 02:39:30;;;;;;;0.00;0.00;;;5.30;99.90;;;;;;5003789;28;20033;-64
2022/11/28 02:42:12;;;;;;;0.00;0.00;;;5.30;99.90;;;;;;5002869;28;20026;-65
2022/11/28 02:44:51;;;;;;;0.00;0.00;;;5.40;99.90;;;;;;5004149;28;20052;-64
2022/11/28 02:47:24;;;;;;;0.00;0.00;;;5.40;99.90;;;;;;5008168;28;20032;-64
2022/11/28 02:50:16;;;;;;;0.00;0.00;;;5.40;99.90;;;;;;5007188;28;20088;-65
2022/11/28 02:52:48;;;;;;;0.00;0.00;;;5.40;99.90;;;;;;5006033;28;20645;-63
2022/11/28 02:55:15;;;;;;;0.00;0.00;;;5.50;99.90;;;;;;5005990;28;20022;-64
2022/11/28 02:57:45;;;;;;;0.00;0.00;;;5.60;99.90;;;;;;5003983;28;20446;-64
2022/11/28 03:00:35;;;;;;;0.00;0.00;;;5.60;99.90;;;;;;5005358;28;20042;-64
2022/11/28 03:03:03;;;;;;;0.00;0.00;;;5.60;99.90;;;;;;5002782;28;20060;-64
2022/11/28 03:06:01;;;;;;;0.00;0.00;;;5.50;99.90;;;;;;5003957;28;20057;-64
2022/11/28 03:08:44;;;;;;;0.00;0.00;;;5.60;99.90;;;;;;5006017;28;20073;-65
2022/11/28 03:11:36;;;;;;;0.00;0.00;;;5.60;99.90;;;;;;5004566;28;20165;-65
2022/11/28 03:14:16;;;;;;;0.00;0.00;;;5.70;99.90;;;;;;5005002;28;20492;-65
2022/11/28 03:17:00;;;;;;;0.00;0.00;;;5.80;99.90;;;;;;5004986;28;20033;-64
2022/11/28 03:19:38;;;;;;;0.00;0.00;;;5.70;99.90;;;;;;5006192;28;20173;-65
2022/11/28 03:22:20;;;;;;;0.00;0.00;;;5.80;99.90;;;;;;5007232;28;20108;-64
2022/11/28 03:25:23;;;;;;;0.00;0.00;;;5.80;99.90;;;;;;5006463;28;20042;-65
2022/11/28 03:28:01;;;;;;;0.00;0.00;;;5.70;99.90;;;;;;5001909;28;20041;-65
2022/11/28 03:30:47;;;;;;;0.00;0.00;;;5.60;99.90;;;;;;4999825;28;20542;-64
2022/11/28 03:33:15;;;;;;;0.00;0.00;;;5.50;99.90;;;;;;5001703;28;20922;-64
2022/11/28 03:35:47;;;;;;;0.00;0.00;;;5.50;99.90;;;;;;5005646;28;20025;-66
2022/11/28 03:38:19;;;;;;;0.00;0.00;;;5.50;99.90;;;;;;5002133;28;20025;-65
2022/11/28 03:40:49;;;;;;;0.00;0.00;;;5.40;99.90;;;;;;5015791;28;20049;-63
2022/11/28 03:43:20;;;;;;;0.00;0.00;;;5.40;99.90;;;;;;5006476;28;20427;-64
2022/11/28 03:45:54;;;;;;;0.00;0.00;;;5.50;99.90;;;;;;5002138;28;20034;-65
2022/11/28 03:48:30;;;;;;;0.00;0.00;;;5.50;99.90;;;;;;5005965;28;20376;-65
2022/11/28 03:51:24;;;;;;;0.00;0.00;;;5.50;99.90;;;;;;5002465;28;20034;-66
2022/11/28 03:53:55;;;;;;;0.00;0.00;;;5.50;99.90;;;;;;5005173;28;21540;-63
2022/11/28 03:56:29;;;;;;;0.00;0.00;;;5.50;99.90;;;;;;5004950;28;20040;-64
2022/11/28 03:59:01;;;;;;;0.00;0.00;;;5.50;99.90;;;;;;5008428;28;20060;-63
2022/11/28 04:01:35;;;;;;;0.00;0.00;;;5.40;99.90;;;;;;5009310;28;20026;-64
2022/11/28 04:04:22;;;;;;;0.00;0.00;;;5.40;99.90;;;;;;5003577;28;20033;-64
2022/11/28 04:06:48;;;;;;;0.00;0.00;;;5.30;99.90;;;;;;5007552;28;20064;-64
2022/11/28 04:09:18;;;;;;;0.00;0.00;;;5.30;99.90;;;;;;5010239;28;20182;-65
2022/11/28 04:11:52;;;;;;;0.00;0.00;;;5.30;99.90;;;;;;5010488;28;20045;-64
2022/11/28 04:14:28;;;;;;;0.00;0.00;;;5.30;99.90;;;;;;5010237;28;20033;-63
2022/11/28 04:17:04;;;;;;;0.00;0.00;;;5.20;99.90;;;;;;5005630;28;20068;-64
2022/11/28 04:19:36;;;;;;;0.00;0.00;;;5.20;99.90;;;;;;5004493;28;20033;-64
2022/11/28 04:22:09;;;;;;;0.00;0.00;;;5.30;99.90;;;;;;5008555;28;20030;-64
2022/11/28 04:24:46;;;;;;;0.00;0.00;;;5.20;99.90;;;;;;5007465;28;20045;-64
2022/11/28 04:27:17;;;;;;;0.00;0.00;;;5.30;99.90;;;;;;5002163;28;20026;-63
2022/11/28 04:29:51;;;;;;;0.00;0.00;;;5.30;99.90;;;;;;5005527;28;20117;-64
2022/11/28 04:32:19;;;;;;;0.00;0.00;;;5.20;99.90;;;;;;5006290;28;20025;-64
2022/11/28 04:34:51;;;;;;;0.00;0.00;;;5.30;99.90;;;;;;5005352;28;20112;-64
2022/11/28 04:37:18;;;;;;;0.00;0.00;;;5.30;99.90;;;;;;5002473;28;20117;-64
2022/11/28 04:39:47;;;;;;;0.00;0.00;;;5.40;99.90;;;;;;5000599;28;20044;-65
2022/11/28 04:42:18;;;;;;;0.00;0.00;;;5.50;99.90;;;;;;5004336;28;20333;-64
2022/11/28 04:45:09;;;;;;;0.00;0.00;;;5.50;99.90;;;;;;5005360;28;20555;-65
2022/11/28 04:47:34;;;;;;;0.00;0.00;;;5.40;99.90;;;;;;5005104;28;20111;-64
2022/11/28 04:50:00;;;;;;;0.00;0.00;;;5.40;99.90;;;;;;5002178;28;20037;-64
2022/11/28 04:52:34;;;;;;;0.00;0.00;;;5.30;99.90;;;;;;5001531;28;20042;-65
2022/11/28 04:55:30;;;;;;;0.00;0.00;;;5.30;99.90;;;;;;4999485;28;20168;-65
2022/11/28 04:58:12;;;;;;;0.00;0.00;;;5.30;99.90;;;;;;5001279;28;20057;-65
2022/11/28 05:00:39;;;;;;;0.00;0.00;;;5.30;99.90;;;;;;5000227;28;20021;-65
2022/11/28 05:03:05;;;;;;;0.00;0.00;;;5.40;99.90;;;;;;5003405;28;20026;-65
2022/11/28 05:05:44;;;;;;;0.00;0.00;;;5.40;99.90;;;;;;5002533;28;20046;-65
2022/11/28 05:08:10;;;;;;;0.00;0.00;;;5.30;99.90;;;;;;5004215;28;20026;-65
2022/11/28 05:10:38;;;;;;;0.00;0.00;;;5.30;99.90;;;;;;5005326;28;20037;-65
2022/11/28 05:13:03;;;;;;;0.00;0.00;;;5.40;99.90;;;;;;5009554;28;20056;-65
2022/11/28 05:15:29;;;;;;;0.00;0.00;;;5.40;99.90;;;;;;5007000;28;20026;-65
2022/11/28 05:17:55;;;;;;;0.00;0.00;;;5.50;99.90;;;;;;5009379;28;20058;-64
2022/11/28 05:20:20;;;;;;;0.00;0.00;;;5.60;99.90;;;;;;5008936;28;20026;-65
2022/11/28 05:22:46;;;;;;;0.00;0.00;;;5.60;99.90;;;;;;5008584;28;20030;-66
2022/11/28 05:25:12;;;;;;;0.00;0.00;;;5.70;99.90;;;;;;5009098;28;20133;-65
2022/11/28 05:27:37;;;;;;;0.00;0.00;;;5.70;99.90;;;;;;5006078;28;20391;-65
2022/11/28 05:30:04;;;;;;;0.00;0.00;;;5.70;99.90;;;;;;5006259;28;20096;-65
2022/11/28 05:32:31;;;;;;;0.00;0.00;;;5.80;99.90;;;;;;5002269;28;20034;-64
2022/11/28 05:34:56;;;;;;;;;;;5.80;99.90;;;;;;5008442;28;20045;-65
2022/11/28 05:37:22;;;;;;;0.00;0.00;;;5.80;99.90;;;;;;5010476;28;19919;-65
2022/11/28 05:39:48;;;;;;;0.00;0.00;;;5.90;99.90;;;;;;5008725;28;20032;-64
2022/11/28 05:42:13;;;;;;;0.00;0.00;;;5.90;99.90;;;;;;5008849;28;20065;-64
2022/11/28 05:44:39;;;;;;;0.00;0.00;;;5.80;99.90;;;;;;5008000;28;20241;-65
2022/11/28 05:47:06;;;;;;;0.00;0.00;;;5.80;99.90;;;;;;5007950;28;20079;-63
2022/11/28 05:49:32;;;;;;;0.00;0.00;;;5.80;99.90;;;;;;5008579;28;20045;-66
2022/11/28 05:51:57;;;;;;;0.00;0.00;;;5.70;99.90;;;;;;5006422;28;20026;-65
2022/11/28 05:54:23;;;;;;;0.00;0.00;;;5.60;99.90;;;;;;5008336;28;20030;-64
2022/11/28 05:56:48;;;;;;;0.00;0.00;;;5.70;99.90;;;;;;5008681;28;20411;-64
2022/11/28 05:59:14;;;;;;;0.00;0.00;;;5.70;99.90;;;;;;5012916;28;20089;-64
2022/11/28 06:01:40;;;;;;;0.00;0.00;;;5.60;99.90;;;;;;5014587;28;20088;-64
2022/11/28 06:04:06;;;;;;;0.00;0.00;;;5.60;99.90;;;;;;5012483;28;20504;-65
2022/11/28 06:06:33;;;;;;;0.00;0.00;;;5.60;99.90;;;;;;5010275;28;20400;-65
2022/11/28 06:08:59;;;;;;;0.00;0.00;;;5.50;99.90;;;;;;5012549;28;20072;-65
2022/11/28 06:11:27;;;;;;;0.00;0.00;;;5.50;99.90;;;;;;5012593;28;20060;-65
2022/11/28 06:13:52;;;;;;;0.00;0.00;;;5.40;99.90;;;;;;5011591;28;20056;-65
2022/11/28 06:16:21;;;;;;;0.00;0.00;;;5.40;99.90;;;;;;5012408;28;20433;-65
2022/11/28 06:18:51;;;;;;;0.00;0.00;;;5.40;99.90;;;;;;5012751;28;20156;-65
2022/11/28 06:21:17;;;;;;;0.00;0.00;;;5.50;99.90;;;;;;5011002;28;20026;-64
2022/11/28 06:23:42;;;;;;;0.00;0.00;;;5.50;99.90;;;;;;5011653;28;20475;-65
2022/11/28 06:26:11;;;;;;;0.00;0.00;;;5.40;99.90;;;;;;5009071;28;20591;-65
2022/11/28 06:28:38;;;;;;;0.00;0.00;;;5.50;99.90;;;;;;5006963;28;20041;-64
2022/11/28 06:31:08;;;;;;;0.00;0.00;;;5.50;99.90;;;;;;5007957;28;20018;-65
2022/11/28 06:33:33;;;;;;;0.00;0.00;;;5.50;99.90;;;;;;5007436;28;20693;-64
2022/11/28 06:36:00;;;;;;;0.00;0.00;;;5.50;99.90;;;;;;5006850;28;20026;-66
2022/11/28 06:38:27;;;;;;;0.00;0.00;;;5.50;99.90;;;;;;5007510;28;20026;-65
2022/11/28 06:41:05;;;;;;;0.00;0.00;;;5.50;99.90;;;;;;5007004;28;20420;-64
2022/11/28 06:43:31;;;;;;;0.00;0.00;;;5.40;99.90;;;;;;5009193;28;20109;-64
2022/11/28 06:45:56;;;;;;;0.00;0.00;;;5.30;99.90;;;;;;5008039;28;20116;-64
2022/11/28 06:48:23;;;;;;;0.00;0.00;;;5.30;99.90;;;;;;5008483;28;20519;-65
2022/11/28 06:50:49;;;;;;;0.00;0.00;;;5.30;99.90;;;;;;5006763;28;20118;-64
2022/11/28 06:53:15;;;;;;;0.00;0.00;;;5.30;99.90;;;;;;5003674;28;20140;-65
2022/11/28 06:55:41;;;;;;;0.00;0.00;;;5.20;99.90;;;;;;5006809;28;20233;-66
2022/11/28 06:58:07;;;;;;;0.00;0.00;;;5.20;99.90;;;;;;5004450;28;20567;-65
2022/11/28 07:00:33;;;;;;;0.00;0.00;;;5.20;99.90;;;;;;5001760;28;20584;-65
2022/11/28 07:02:58;;;;;;;0.00;0.00;;;5.20;99.90;;;;;;5003161;28;20507;-65
2022/11/28 07:05:29;;;;;;;0.00;0.00;;;5.20;99.90;;;;;;5003513;28;20034;-64
2022/11/28 07:07:56;;;;;;;0.00;0.00;;;5.10;99.90;;;;;;5001164;28;20030;-65
2022/11/28 07:10:22;;;;;;;0.00;0.00;;;5.00;99.90;;;;;;5001643;28;20123;-64
2022/11/28 07:12:59;;;;;;;0.00;0.00;;;5.00;99.90;;;;;;5006169;28;20018;-65
2022/11/28 07:15:25;;;;;;;0.00;0.00;;;5.00;99.90;;;;;;5007682;28;20375;-65
2022/11/28 07:17:51;;;;;;;0.00;0.00;;;4.90;99.90;;;;;;5006980;28;20025;-64
2022/11/28 07:20:17;;;;;;;0.00;0.00;;;5.00;99.90;;;;;;5007466;28;20029;-65
2022/11/28 07:22:45;;;;;;;0.00;0.00;;;5.00;99.90;;;;;;5004575;28;20025;-66
2022/11/28 07:25:11;;;;;;;0.00;0.00;;;5.00;99.90;;;;;;5007626;28;20026;-65
2022/11/28 07:27:37;;;;;;;0.00;0.00;;;4.90;99.90;;;;;;5008803;28;20041;-64
2022/11/28 07:30:03;;;;;;;0.00;0.00;;;5.00;99.90;;;;;;5006778;28;20472;-65
2022/11/28 07:32:29;;;;;;;0.00;0.00;;;5.00;99.90;;;;;;5002993;28;20457;-65
2022/11/28 07:34:54;;;;;;;0.00;0.00;;;5.00;99.90;;;;;;5002617;28;20030;-64
2022/11/28 07:37:20;;;;;;;0.00;0.00;;;5.00;99.90;;;;;;5005541;28;20034;-64
2022/11/28 07:39:46;;;;;;;0.00;0.00;;;5.00;99.90;;;;;;5005470;28;20055;-65
2022/11/28 07:42:12;;;;;;;0.00;0.00;;;5.00;99.90;;;;;;5005273;28;20038;-65
2022/11/28 07:44:37;;;;;;;0.00;0.00;;;5.00;99.90;;;;;;5007179;28;20056;-65
2022/11/28 07:47:03;;;;;;;0.00;0.00;;;5.00;99.90;;;;;;5002572;28;20040;-65
2022/11/28 07:49:29;;;;;;;0.00;0.00;;;5.00;99.90;;;;;;5006897;28;20096;-65
2022/11/28 07:51:54;;;;;;;0.00;0.00;;;5.10;99.90;;;;;;5004202;28;20040;-65
2022/11/28 07:54:21;;;;;;;0.00;0.00;;;5.10;99.90;;;;;;5005404;28;20026;-65
2022/11/28 07:56:46;;;;;;;0.00;0.00;;;5.10;99.90;;;;;;5016332;28;20395;-65
2022/11/28 07:59:12;;;;;;;0.00;0.00;;;5.00;99.90;;;;;;5008853;28;20033;-65
2022/11/28 08:01:38;;;;;;;0.00;0.00;;;5.10;99.90;;;;;;5004605;28;20034;-65
2022/11/28 08:04:06;;;;;;;0.00;0.00;;;5.20;99.90;;;;;;5005628;28;20057;-65
2022/11/28 08:06:36;;;;;;;0.00;0.00;;;5.40;99.90;;;;;;5014808;28;20061;-66
2022/11/28 08:09:03;;;;;;;0.00;0.00;;;5.50;99.90;;;;;;5003928;28;20033;-66
2022/11/28 08:11:29;;;;;;;0.00;0.00;;;5.50;99.90;;;;;;5008022;28;20052;-65
2022/11/28 08:13:56;;;;;;;0.00;0.00;;;5.40;99.90;;;;;;5008800;28;20030;-65
2022/11/28 08:16:23;;;;;;;0.00;0.00;;;5.50;99.90;;;;;;5009811;28;20018;-65
2022/11/28 08:18:50;;;;;;;0.00;0.00;;;5.50;99.90;;;;;;5008923;28;20032;-66
2022/11/28 08:21:24;;;;;;;0.00;0.00;;;5.50;99.90;;;;;;4999652;28;20026;-65
2022/11/28 08:23:51;;;;;;;0.00;0.00;;;5.60;99.90;;;;;;5002381;28;20125;-65
2022/11/28 08:26:20;;;;;;;0.00;0.00;;;5.70;99.90;;;;;;5004856;28;20038;-65
2022/11/28 08:28:46;;;;;;;0.00;0.00;;;5.80;99.90;;;;;;5007364;28;20495;-65
2022/11/28 08:31:12;;;;;;;;;;;6.00;99.90;;;;;;5007491;28;20470;-65
2022/11/28 08:33:38;;;;;;;0.00;0.00;;;5.90;99.90;;;;;;5006154;28;19905;-65
2022/11/28 08:36:09;;;;;;;0.00;0.00;;;5.90;99.90;;;;;;5007096;28;20607;-66
2022/11/28 08:38:36;;;;;;;0.00;0.00;;;5.90;99.90;;;;;;5007911;28;20404;-66
2022/11/28 08:41:03;;;;;;;0.00;0.00;;;6.10;99.90;;;;;;5002666;28;20025;-65
2022/11/28 08:43:29;;;;;;;0.00;0.00;;;6.20;99.90;;;;;;5005313;28;20076;-65
2022/11/28 08:45:54;;;;;;;0.00;0.00;;;6.40;99.90;;;;;;5005058;28;20433;-65
2022/11/28 08:48:20;;;;;;;0.00;0.00;;;6.40;99.90;;;;;;5012490;28;20038;-65
2022/11/28 08:50:49;;;;;;;0.00;0.00;;;6.40;99.90;;;;;;5011319;28;20468;-65
2022/11/28 08:53:15;;;;;;;0.00;0.00;;;6.40;99.90;;;;;;5011412;28;20181;-66
2022/11/28 08:55:43;;;;;;;0.00;0.00;;;6.40;99.90;;;;;;5004576;28;20078;-64
2022/11/28 08:58:09;;;;;;;0.00;0.00;;;6.50;99.90;;;;;;5003936;28;20121;-65
2022/11/28 09:00:34;;;;;;;0.00;0.00;;;6.40;99.90;;;;;;5011622;28;20030;-65
2022/11/28 09:03:00;;;;;;;0.00;0.00;;;6.30;99.90;;;;;;5009576;28;20026;-65
2022/11/28 09:05:27;;;;;;;0.00;0.00;;;6.40;99.90;;;;;;5007296;28;20034;-65
2022/11/28 09:07:54;;;;;;;0.00;0.00;;;6.40;99.90;;;;;;5012282;28;20034;-65
2022/11/28 09:10:20;;;;;;;0.00;0.00;;;6.30;99.90;;;;;;5009320;28;20098;-65
2022/11/28 09:12:45;;;;;;;0.00;0.00;;;6.30;99.90;;;;;;5013644;28;20521;-64
2022/11/28 09:15:11;;;;;;;0.00;0.00;;;6.20;99.90;;;;;;5010203;28;20018;-65
2022/11/28 09:17:38;;;;;;;0.00;0.00;;;6.20;99.90;;;;;;5005899;28;20559;-65
2022/11/28 09:20:05;;;;;;;0.00;0.00;;;6.20;99.90;;;;;;5010593;28;20037;-65
2022/11/28 09:22:31;;;;;;;0.00;0.00;;;6.20;99.90;;;;;;5006641;28;20445;-65
2022/11/28 09:24:57;;;;;;;0.00;0.00;;;6.20;99.90;;;;;;5005704;28;20048;-65
2022/11/28 09:27:22;;;;;;;0.00;0.00;;;6.20;99.90;;;;;;5011814;28;20065;-65
2022/11/28 09:29:48;;;;;;;0.00;0.00;;;6.20;99.90;;;;;;5002366;28;20031;-66
2022/11/28 09:32:14;;;;;;;0.00;0.00;;;6.40;99.90;;;;;;5016948;28;20490;-65
2022/11/28 09:34:39;;;;;;;0.00;0.00;;;6.50;99.90;;;;;;5012409;28;20036;-64
2022/11/28 09:37:05;;;;;;;0.00;0.00;;;6.40;99.90;;;;;;5011118;28;20044;-66
2022/11/28 09:39:31;;;;;;;0.00;0.00;;;6.40;99.90;;;;;;5013059;28;20087;-65
2022/11/28 09:42:33;;;;;;;0.00;0.00;;;6.30;99.90;;;;;;5009912;28;20133;-66
2022/11/28 09:45:06;;;;;;;0.00;0.00;;;6.20;99.90;;;;;;5007345;28;20052;-64
2022/11/28 09:47:35;;;;;;;0.00;0.00;;;6.40;99.90;;;;;;5012002;28;20037;-65
2022/11/28 09:50:14;;;;;;;0.00;0.00;;;6.60;99.90;;;;;;5010615;28;20349;-65
2022/11/28 09:53:12;;;;;;;0.00;0.00;;;6.50;99.90;;;;;;5013064;28;20026;-65
2022/11/28 09:55:42;;;;;;;;;;;6.50;99.90;;;;;;5011341;28;20036;-66
2022/11/28 09:58:17;;;;;;;0.00;0.00;;;6.50;99.90;;;;;;5012916;28;19924;-66
2022/11/28 10:00:57;;;;;;;0.00;0.00;;;6.60;99.90;;;;;;5011620;28;20029;-65
2022/11/28 10:03:47;;;;;;;0.00;0.00;;;6.70;99.90;;;;;;5010121;28;20500;-67
2022/11/28 10:06:57;;;;;;;0.00;0.00;;;6.80;99.90;;;;;;5012910;28;20088;-66
2022/11/28 10:09:41;;;;;;;0.00;0.00;;;6.80;99.90;;;;;;4985070;28;20030;-66
2022/11/28 10:12:35;;;;;;;0.00;0.00;;;6.80;99.90;;;;;;5006028;28;20175;-66
2022/11/28 10:15:18;;;;;;;0.00;0.00;;;6.90;99.90;;;;;;5026600;28;20033;-65
2022/11/28 10:17:52;;;;;;;0.00;0.00;;;7.00;99.90;;;;;;5005652;28;20026;-65
2022/11/28 10:20:39;;;;;;;0.00;0.00;;;7.10;99.90;;;;;;5011085;28;20026;-64
2022/11/28 10:23:10;;;;;;;;;;;7.20;99.90;;;;;;5007257;28;20040;-65
2022/11/28 10:25:47;;;;;;;0.00;0.00;;;7.30;99.90;;;;;;5011682;28;20012;-65
2022/11/28 10:28:41;;;;;;;0.00;0.00;;;7.50;99.90;;;;;;5001256;28;20026;-65
2022/11/28 10:31:35;;;;;;;0.00;0.00;;;7.60;99.90;;;;;;5009653;28;20038;-64
2022/11/28 10:34:18;;;;;;;0.00;0.00;;;7.80;99.90;;;;;;5004184;28;20033;-65
2022/11/28 10:37:20;;;;;;;0.00;0.00;;;7.90;99.90;;;;;;5007488;28;20682;-65
2022/11/28 10:39:47;;;;;;;0.00;0.00;;;8.00;99.90;;;;;;5010764;28;20499;-65
2022/11/28 10:42:45;;;;;;;0.00;0.00;;;8.10;99.90;;;;;;5011375;28;20125;-65
2022/11/28 10:45:45;;;;;;;0.00;0.00;;;8.10;99.90;;;;;;5011021;28;20084;-65
2022/11/28 10:48:10;;;;;;;0.00;0.00;;;8.30;99.90;;;;;;5010779;28;20491;-65
2022/11/28 10:50:51;;;;;;;0.00;0.00;;;8.50;99.90;;;;;;5010555;28;20029;-64
2022/11/28 10:53:19;;;;;;;0.00;0.00;;;8.70;99.90;;;;;;5002164;28;20080;-65
2022/11/28 10:56:00;;;;;;;0.00;0.00;;;8.80;99.90;;;;;;5010802;28;20030;-66
2022/11/28 10:58:56;;;;;;;0.00;0.00;;;8.80;99.90;;;;;;5009366;28;20026;-66
2022/11/28 11:01:25;;;;;;;0.00;0.00;;;8.90;99.90;;;;;;5009298;28;20507;-65
2022/11/28 11:03:51;;;;;;;0.00;0.00;;;8.90;99.90;;;;;;5010257;28;20103;-65
2022/11/28 11:06:17;;;;;;;0.00;0.00;;;9.00;99.90;;;;;;5011916;28;20073;-66
2022/11/28 11:08:46;;;;;;;0.00;0.00;;;9.10;99.90;;;;;;5003260;28;20045;-66
2022/11/28 11:11:29;;;;;;;0.00;0.00;;;9.30;99.90;;;;;;5009308;28;20445;-65
2022/11/28 11:14:08;;;;;;;0.00;0.00;;;9.40;99.90;;;;;;5006414;28;20454;-66
2022/11/28 11:16:50;;;;;;;0.00;0.00;;;9.40;99.90;;;;;;4997835;28;20026;-66
2022/11/28 11:19:36;;;;;;;0.00;0.00;;;9.60;99.90;;;;;;5008251;28;20038;-66
2022/11/28 11:22:20;;;;;;;0.00;0.00;;;9.60;99.90;;;;;;5010238;28;20040;-64
2022/11/28 11:25:04;;;;;;;0.00;0.00;;;9.60;99.90;;;;;;4999331;28;20137;-65
2022/11/28 11:27:30;;;;;;;0.00;0.00;;;9.70;99.90;;;;;;5020313;28;20567;-66
2022/11/28 11:29:56;;;;;;;0.00;0.00;;;9.80;99.90;;;;;;5004134;28;20041;-64
2022/11/28 11:32:29;;;;;;;0.00;0.00;;;9.90;99.90;;;;;;5009827;28;20034;-65
2022/11/28 11:34:57;;;;;;;0.00;0.00;;;9.90;99.90;;;;;;5011331;28;20029;-65
2022/11/28 11:37:35;;;;;;;0.00;0.00;;;10.00;99.90;;;;;;5010020;28;20030;-66
2022/11/28 11:40:16;;;;;;;0.00;0.00;;;10.00;99.90;;;;;;5011156;28;20102;-65
2022/11/28 11:43:00;;;;;;;0.00;0.00;;;10.00;99.90;;;;;;5007303;28;20040;-65
2022/11/28 11:45:33;;;;;;;0.00;0.00;;;10.10;99.90;;;;;;5006237;28;20078;-65
2022/11/28 11:48:00;;;;;;;0.00;0.00;;;10.10;99.90;;;;;;5004210;28;20030;-65
2022/11/28 11:50:29;;;;;;;0.00;0.00;;;10.20;99.90;;;;;;5009383;28;20069;-65
2022/11/28 11:53:00;;;;;;;0.00;0.00;;;10.30;99.90;;;;;;5005269;28;20022;-65
2022/11/28 11:55:28;;;;;;;0.00;0.00;;;10.30;99.90;;;;;;5009590;28;20018;-65
2022/11/28 11:57:58;;;;;;;0.00;0.00;;;10.20;99.90;;;;;;5004995;28;20054;-65
2022/11/28 12:00:36;;;;;;;0.00;0.00;;;10.20;99.90;;;;;;5004765;28;20400;-65
2022/11/28 12:03:16;;;;;;;0.00;0.00;;;10.20;99.90;;;;;;5000159;28;20039;-64
2022/11/28 12:05:57;;;;;;;0.00;0.00;;;10.30;99.90;;;;;;5001335;28;20037;-64
2022/11/28 12:09:01;;;;;;;0.00;0.00;;;10.40;99.90;;;;;;5003843;28;20113;-64
2022/11/28 12:11:42;;;;;;;0.00;0.00;;;10.40;99.90;;;;;;5008263;28;20041;-65
2022/11/28 12:14:34;;;;;;;0.00;0.00;;;10.40;99.90;;;;;;5009490;28;20353;-65
2022/11/28 12:17:11;;;;;;;0.00;0.00;;;10.50;99.90;;;;;;5000207;28;20026;-65
2022/11/28 12:20:14;;;;;;;0.00;0.00;;;10.50;99.90;;;;;;5000360;28;20022;-66
2022/11/28 12:23:26;;;;;;;0.00;0.00;;;10.50;99.90;;;;;;5005945;28;20380;-65
2022/11/28 12:26:11;;;;;;;0.00;0.00;;;10.40;99.90;;;;;;5009847;28;20034;-65
2022/11/28 12:29:14;;;;;;;0.00;0.00;;;10.50;99.90;;;;;;5001431;28;20389;-65
2022/11/28 12:31:48;;;;;;;0.00;0.00;;;10.60;99.90;;;;;;5004827;28;20072;-66
2022/11/28 12:34:22;;;;;;;0.00;0.00;;;10.60;99.90;;;;;;5007066;28;20025;-64
2022/11/28 12:36:54;;;;;;;0.00;0.00;;;10.60;99.90;;;;;;5006896;28;20058;-65
2022/11/28 12:39:46;;;;;;;0.00;0.00;;;10.70;99.90;;;;;;5008077;28;20037;-65
2022/11/28 12:42:44;;;;;;;0.00;0.00;;;10.60;99.90;;;;;;5010940;28;20116;-65
2022/11/28 12:45:35;;;;;;;0.00;0.00;;;10.50;99.90;;;;;;5007236;28;20037;-64
2022/11/28 12:48:41;;;;;;;0.00;0.00;;;10.40;99.90;;;;;;5009503;28;20150;-65
2022/11/28 12:51:48;;;;;;;0.00;0.00;;;10.50;99.90;;;;;;5006495;28;20075;-65
2022/11/28 12:54:50;;;;;;;0.00;0.00;;;10.50;99.90;;;;;;5008418;28;20034;-65
2022/11/28 12:57:44;;;;;;;0.00;0.00;;;10.60;99.90;;;;;;5007167;28;20032;-65
2022/11/28 13:00:13;;;;;;;0.00;0.00;;;10.70;99.90;;;;;;5008220;28;20114;-64
2022/11/28 13:03:22;;;;;;;0.00;0.00;;;10.80;99.90;;;;;;5007519;28;20442;-66
2022/11/28 13:06:32;;;;;;;0.00;0.00;;;10.90;99.90;;;;;;5007136;28;20038;-65
2022/11/28 13:09:16;;;;;;;0.00;0.00;;;11.00;99.90;;;;;;5014462;28;20041;-66
2022/11/28 13:11:55;;;;;;;0.00;0.00;;;11.10;99.90;;;;;;5007796;28;20391;-64
2022/11/28 13:15:08;;;;;;;0.00;0.00;;;11.10;99.90;;;;;;5006846;28;20045;-66
2022/11/28 13:18:08;;;;;;;0.00;0.00;;;11.20;99.90;;;;;;5017152;28;20053;-66
2022/11/28 13:21:01;;;;;;;0.00;0.00;;;11.40;99.90;;;;;;5009471;28;20061;-66
2022/11/28 13:23:48;;;;;;;0.00;0.00;;;11.60;99.90;;;;;;5010093;28;20072;-66
2022/11/28 13:26:36;;;;;;;0.00;0.00;;;11.70;99.90;;;;;;5003570;28;20121;-65
2022/11/28 13:29:14;;;;;;;0.00;0.00;;;11.60;99.90;;;;;;5008541;28;20030;-64
2022/11/28 13:31:44;;;;;;;0.00;0.00;;;11.50;99.90;;;;;;5010806;28;20109;-64